Time;durP1;ratioP1;P1;durP2;ratioP2;P2;SDS_P1;SDS_P2;PMS_P1;PMS_P2;Temp;Humidity;BMP_temperature;BMP_pressure;BME280_temperature;BME280_humidity;BME280_pressure;Samples;Min_cycle;Max_cycle;Signal;HPM_P1;HPM_P2
2021/12/08 00:00:55;;;;;;;;;0.25;0.25;;;;;8.21;63.13;99052.69;4974708;28;45486;-72
2021/12/08 00:03:22;;;;;;;;;4.75;1.75;;;;;8.17;63.32;99054.50;4974791;28;45341;-73
2021/12/08 00:05:48;;;;;;;;;1.25;1.25;;;;;8.08;63.42;99050.34;4974721;28;45563;-72
2021/12/08 00:08:16;;;;;;;;;3.25;2.00;;;;;7.98;63.42;99029.69;4974628;28;47188;-72
2021/12/08 00:13:27;;;;;;;;;2.00;0.75;;;;;8.07;63.29;99048.63;4974982;28;45440;-73
2021/12/08 00:15:55;;;;;;;;;1.00;1.00;;;;;8.19;63.38;99065.81;4974647;28;45476;-73
2021/12/08 00:18:25;;;;;;;;;2.00;1.25;;;;;8.18;63.49;99057.97;4974496;28;45989;-73
2021/12/08 00:20:54;;;;;;;;;3.75;0.75;;;;;8.15;63.38;99056.28;4974530;28;45498;-73
2021/12/08 00:23:20;;;;;;;;;1.00;1.00;;;;;8.10;63.55;99051.19;4974795;28;45285;-73
2021/12/08 00:25:46;;;;;;;;;0.50;0.50;;;;;7.92;63.52;99030.72;4974667;28;45230;-72
2021/12/08 00:28:12;;;;;;;;;1.50;1.50;;;;;8.01;63.91;99055.78;4973969;28;47444;-73
2021/12/08 00:30:43;;;;;;;;;3.00;3.00;;;;;7.94;64.18;99045.47;4974014;28;45508;-74
2021/12/08 00:33:09;;;;;;;;;2.50;2.00;;;;;7.79;64.30;99010.94;4973977;28;45187;-72
2021/12/08 00:35:36;;;;;;;;;3.50;1.00;;;;;8.00;63.99;99047.06;4974682;28;45396;-74
2021/12/08 00:38:03;;;;;;;;;3.00;1.25;;;;;7.75;64.25;98997.09;4974254;28;46471;-73
2021/12/08 00:40:29;;;;;;;;;4.50;2.00;;;;;7.80;63.95;99024.00;4974422;28;45388;-73
2021/12/08 00:42:55;;;;;;;;;3.25;2.75;;;;;8.00;63.86;99054.94;4974351;28;45463;-73
2021/12/08 00:45:23;;;;;;;;;2.00;1.00;;;;;7.99;64.26;99058.47;4957410;28;45503;-72
2021/12/08 00:47:50;;;;;;;;;2.00;2.00;;;;;8.01;64.00;99061.03;4974286;28;45483;-73
2021/12/08 00:50:17;;;;;;;;;3.00;2.00;;;;;8.00;63.91;99077.66;4974178;28;45453;-73
2021/12/08 00:52:43;;;;;;;;;2.25;1.00;;;;;7.90;63.79;99063.94;4974026;28;45388;-74
2021/12/08 00:55:12;;;;;;;;;1.00;0.00;;;;;7.68;63.62;99038.28;4974419;28;45399;-73
2021/12/08 00:57:38;;;;;;;;;1.25;1.25;;;;;7.91;63.58;99099.69;4973986;28;45408;-73
2021/12/08 01:00:09;;;;;;;;;2.00;1.00;;;;;7.68;63.67;99056.59;4973863;28;45337;-73
2021/12/08 01:02:39;;;;;;;;;1.00;1.00;;;;;7.83;63.61;99099.03;4975306;28;45598;-73
2021/12/08 01:05:07;;;;;;;;;4.00;1.00;;;;;7.67;63.61;99073.22;4977378;28;45416;-73
2021/12/08 01:07:33;;;;;;;;;2.00;2.00;;;;;7.73;63.54;99077.44;4976725;28;47366;-73
2021/12/08 01:09:58;;;;;;;;;2.00;2.00;;;;;7.81;63.35;99114.78;4976822;28;45475;-73
2021/12/08 01:12:24;;;;;;;;;1.00;1.00;;;;;7.71;62.98;99106.28;4976682;28;45327;-74
2021/12/08 01:14:49;;;;;;;;;2.50;1.00;;;;;7.52;63.67;99068.31;4976889;28;45254;-73
2021/12/08 01:17:15;;;;;;;;;1.00;0.00;;;;;7.54;63.55;99071.78;4976994;28;45397;-73
2021/12/08 01:19:40;;;;;;;;;0.00;0.00;;;;;7.40;63.48;99053.78;4976870;28;45369;-72
2021/12/08 01:22:06;;;;;;;;;0.00;0.00;;;;;7.58;63.77;99099.63;4977118;28;45572;-73
2021/12/08 01:24:31;;;;;;;;;0.00;0.00;;;;;7.56;63.40;99090.94;4977369;28;45433;-73
2021/12/08 01:26:57;;;;;;;;;0.75;0.75;;;;;7.38;63.84;99066.06;4976647;28;46002;-73
2021/12/08 01:29:23;;;;;;;;;0.00;0.00;;;;;7.32;64.11;99031.31;4977104;28;45526;-73
2021/12/08 01:31:49;;;;;;;;;0.00;0.00;;;;;7.24;63.68;98993.09;4976764;28;45315;-73
2021/12/08 01:34:15;;;;;;;;;2.25;0.00;;;;;7.57;63.55;99053.41;4977002;28;45281;-74
2021/12/08 01:36:42;;;;;;;;;0.50;0.50;;;;;7.52;63.75;99063.09;4976232;28;45582;-73
2021/12/08 01:39:08;;;;;;;;;1.25;0.75;;;;;7.32;63.38;99033.91;4976865;28;45352;-73
2021/12/08 01:41:34;;;;;;;;;0.00;0.00;;;;;7.44;63.18;99051.94;4976664;28;45424;-72
2021/12/08 01:46:44;;;;;;;;;1.00;0.00;;;;;7.43;63.66;99073.81;4976305;28;45782;-72
2021/12/08 01:49:10;;;;;;;;;0.50;0.00;;;;;7.36;64.15;99077.44;4976532;28;45272;-72
2021/12/08 01:51:36;;;;;;;;;0.25;0.25;;;;;7.25;63.69;99065.47;4977134;28;45402;-73
2021/12/08 01:54:04;;;;;;;;;0.00;0.00;;;;;7.36;63.68;99111.47;4977053;28;45384;-73
2021/12/08 01:56:33;;;;;;;;;0.75;0.50;;;;;6.76;63.91;99014.25;4976279;28;45567;-72
2021/12/08 01:59:00;;;;;;;;;0.25;0.25;;;;;7.30;63.54;99107.25;4976341;28;45366;-73
2021/12/08 02:01:28;;;;;;;;;1.00;0.00;;;;;7.25;63.70;99111.69;4958903;28;45447;-72
2021/12/08 02:03:54;;;;;;;;;0.00;0.00;;;;;7.19;63.66;99117.94;4976808;28;45518;-71
2021/12/08 02:06:21;;;;;;;;;2.00;0.00;;;;;7.05;64.10;99104.28;4976185;28;46657;-73
2021/12/08 02:08:52;;;;;;;;;2.25;1.00;;;;;6.69;63.88;99057.09;4976564;28;45373;-71
2021/12/08 02:11:20;;;;;;;;;0.00;0.00;;;;;6.96;64.50;99092.28;4976346;28;45414;-73
2021/12/08 02:13:45;;;;;;;;;1.25;0.25;;;;;7.14;64.37;99125.00;4975391;28;45358;-73
2021/12/08 02:16:14;;;;;;;;;0.00;0.00;;;;;7.14;64.12;99130.25;4976142;28;46002;-72
2021/12/08 02:18:41;;;;;;;;;1.00;1.00;;;;;7.01;64.42;99126.19;4976213;28;45456;-72
2021/12/08 02:21:30;;;;;;;;;0.00;0.00;;;;;7.05;64.42;99157.44;4976458;28;45355;-72
2021/12/08 02:23:59;;;;;;;;;0.00;0.00;;;;;6.96;64.66;99147.19;4976630;28;45416;-73
2021/12/08 02:26:26;;;;;;;;;1.00;1.00;;;;;7.02;64.59;99159.28;4976022;28;45459;-71
2021/12/08 02:28:53;;;;;;;;;0.00;0.00;;;;;6.98;65.37;99162.84;4976083;28;45327;-72
2021/12/08 02:31:28;;;;;;;;;0.00;0.00;;;;;6.98;64.88;99158.50;4976253;28;45402;-73
2021/12/08 02:47:54;;;;;;;;;1.00;0.00;;;;;6.78;65.73;99130.09;4975912;28;45416;-72
2021/12/08 02:50:33;;;;;;;;;1.25;0.00;;;;;6.60;65.62;99117.38;4958361;28;45435;-72
2021/12/08 02:52:59;;;;;;;;;0.25;0.00;;;;;6.78;65.55;99168.47;4975914;28;45449;-72
2021/12/08 02:55:28;;;;;;;;;0.00;0.00;;;;;6.79;66.10;99160.59;4976208;28;45214;-73
2021/12/08 02:57:54;;;;;;;;;2.00;1.00;;;;;6.72;65.42;99150.28;4975591;28;46499;-73
2021/12/08 03:00:26;;;;;;;;;0.00;0.00;;;;;6.78;65.73;99158.84;4975495;28;45436;-72
2021/12/08 03:02:54;;;;;;;;;0.00;0.00;;;;;6.71;65.28;99156.38;4976111;28;45703;-71
2021/12/08 03:05:20;;;;;;;;;0.25;0.25;;;;;6.65;65.68;99145.16;4975920;28;45441;-72
2021/12/08 03:07:45;;;;;;;;;0.00;0.00;;;;;6.63;65.54;99133.00;4975584;28;45528;-72
2021/12/08 03:10:16;;;;;;;;;0.00;0.00;;;;;6.68;65.22;99139.00;4975888;28;45361;-71
2021/12/08 03:12:42;;;;;;;;;0.50;0.00;;;;;6.73;65.53;99147.63;4975705;28;45352;-72
2021/12/08 03:15:09;;;;;;;;;0.75;0.75;;;;;6.72;65.16;99140.69;4958175;28;45392;-71
2021/12/08 03:17:35;;;;;;;;;1.00;0.00;;;;;6.68;65.38;99138.16;4975574;28;45737;-72
2021/12/08 03:20:06;;;;;;;;;2.25;1.00;;;;;6.48;65.47;99123.69;4975586;28;45482;-73
2021/12/08 03:22:33;;;;;;;;;1.25;1.00;;;;;6.56;65.45;99121.78;4975665;28;45625;-73
2021/12/08 03:25:01;;;;;;;;;3.00;0.00;;;;;6.54;65.24;99114.88;4975612;28;45414;-72
2021/12/08 03:27:33;;;;;;;;;1.00;1.00;;;;;6.46;65.11;99096.72;4975440;28;45480;-71
2021/12/08 03:30:11;;;;;;;;;0.50;0.50;;;;;6.10;65.18;99038.16;4975386;28;45645;-72
2021/12/08 03:32:39;;;;;;;;;1.00;1.00;;;;;6.61;65.13;99119.97;4975251;28;45368;-72
2021/12/08 03:35:10;;;;;;;;;0.00;0.00;;;;;6.62;65.19;99120.84;4975732;28;45350;-72
2021/12/08 03:37:39;;;;;;;;;3.00;1.25;;;;;6.04;65.02;99017.41;4974917;28;46334;-72
2021/12/08 03:40:09;;;;;;;;;0.00;0.00;;;;;6.60;65.63;99110.41;4975277;28;45764;-72
2021/12/08 03:42:37;;;;;;;;;1.00;1.00;;;;;6.59;65.51;99118.25;4957741;28;45356;-73
2021/12/08 03:45:07;;;;;;;;;0.00;0.00;;;;;6.29;65.21;99070.91;4975366;28;45567;-73
2021/12/08 03:47:33;;;;;;;;;1.00;1.00;;;;;6.51;65.37;99117.56;4975328;28;45415;-74
2021/12/08 03:50:02;;;;;;;;;1.75;0.50;;;;;6.42;65.29;99089.84;4975402;28;45435;-73
2021/12/08 03:52:27;;;;;;;;;0.00;0.00;;;;;6.37;65.16;99079.50;4975162;28;45377;-72
2021/12/08 03:54:53;;;;;;;;;2.00;1.00;;;;;6.29;65.64;99057.84;4957618;28;45434;-73
2021/12/08 03:57:19;;;;;;;;;2.50;1.50;;;;;6.44;65.05;99083.72;4974928;28;46345;-73
2021/12/08 03:59:44;;;;;;;;;4.50;3.00;;;;;6.40;65.55;99094.25;4974783;28;45322;-72
2021/12/08 04:02:10;;;;;;;;;4.75;4.25;;;;;6.64;65.51;99125.16;4957605;28;45188;-72
2021/12/08 04:04:46;;;;;;;;;2.00;2.00;;;;;6.58;65.11;99117.41;4975466;28;45594;-72
2021/12/08 04:07:14;;;;;;;;;3.00;0.50;;;;;6.54;65.61;99101.81;4974764;28;47118;-72
2021/12/08 04:09:42;;;;;;;;;2.00;2.00;;;;;6.53;65.18;99097.47;4975017;28;45436;-72
2021/12/08 04:12:17;;;;;;;;;1.50;1.00;;;;;6.54;65.23;99091.34;4957387;28;45423;-72
2021/12/08 04:14:52;;;;;;;;;5.50;1.75;;;;;6.62;65.46;99097.31;4975239;28;45579;-73
2021/12/08 04:17:30;;;;;;;;;1.25;1.25;;;;;6.65;65.33;99120.78;4974808;28;45309;-72
2021/12/08 04:19:59;;;;;;;;;2.00;1.00;;;;;6.61;65.72;99127.84;4974654;28;45301;-72
2021/12/08 04:22:32;;;;;;;;;1.00;1.00;;;;;6.46;65.29;99098.50;4957253;28;46011;-72
2021/12/08 04:25:01;;;;;;;;;0.50;0.50;;;;;6.61;65.64;99112.16;4974776;28;45666;-73
2021/12/08 04:27:30;;;;;;;;;0.25;0.25;;;;;6.62;65.63;99126.06;4956890;28;46373;-73
2021/12/08 04:29:56;;;;;;;;;0.00;0.00;;;;;6.59;65.43;99132.22;4974762;28;45454;-72
2021/12/08 04:32:25;;;;;;;;;1.00;1.00;;;;;6.59;65.82;99121.75;4974056;28;45313;-73
2021/12/08 04:34:56;;;;;;;;;4.25;1.25;;;;;6.58;65.40;99120.03;4974811;28;45333;-73
2021/12/08 04:37:28;;;;;;;;;2.25;1.00;;;;;6.62;65.36;99140.00;4973830;28;45421;-73
2021/12/08 04:45:40;;;;;;;;;0.00;0.00;;;;;6.66;65.35;99114.63;5014740;28;45283;-72
2021/12/08 04:48:25;;;;;;;;;0.75;0.75;;;;;6.48;65.40;99112.41;5014510;28;45926;-73
2021/12/08 05:05:11;;;;;;;;;2.00;1.00;;;;;6.44;66.00;99138.59;5014128;28;45463;-72
2021/12/08 05:09:39;;;;;;;;;1.00;1.00;;;;;6.14;65.65;99079.03;5014031;28;45494;-72
2021/12/08 05:12:12;;;;;;;;;3.25;2.00;;;;;6.60;65.84;99154.00;5013975;28;45475;-72
2021/12/08 05:14:46;;;;;;;;;3.00;1.00;;;;;6.56;65.60;99157.53;5014069;28;45369;-72
2021/12/08 05:17:20;;;;;;;;;1.25;0.50;;;;;6.26;65.86;99111.91;5014480;28;45424;-73
2021/12/08 05:19:56;;;;;;;;;2.75;1.50;;;;;6.20;65.92;99098.09;4996237;28;46482;-72
2021/12/08 05:22:28;;;;;;;;;2.00;1.00;;;;;6.50;66.00;99155.06;4973889;28;45326;-72
2021/12/08 05:24:56;;;;;;;;;2.50;2.00;;;;;6.40;65.65;99138.66;4973640;28;45405;-72
2021/12/08 05:27:26;;;;;;;;;3.00;1.50;;;;;6.49;65.66;99161.16;4974222;28;45345;-73
2021/12/08 05:29:59;;;;;;;;;1.50;0.00;;;;;6.42;66.32;99163.88;4973697;28;45251;-72
2021/12/08 05:32:24;;;;;;;;;1.00;1.00;;;;;6.29;66.22;99154.50;4973351;28;45523;-72
2021/12/08 05:34:50;;;;;;;;;2.00;1.00;;;;;6.28;66.40;99149.34;4973889;28;45232;-72
2021/12/08 05:37:19;;;;;;;;;0.50;0.50;;;;;6.37;66.01;99173.56;4973515;28;45389;-72
2021/12/08 05:39:46;;;;;;;;;5.00;1.00;;;;;6.30;65.90;99166.72;4955738;28;46475;-72
2021/12/08 05:42:18;;;;;;;;;1.50;1.00;;;;;6.32;66.18;99175.38;4972940;28;45530;-69
2021/12/08 05:44:43;;;;;;;;;2.00;1.00;;;;;6.26;66.46;99166.78;4973236;28;45260;-70
2021/12/08 05:47:15;;;;;;;;;2.00;2.00;;;;;6.18;66.60;99151.25;4973268;28;45516;-70
2021/12/08 05:49:41;;;;;;;;;4.25;2.75;;;;;6.12;66.40;99138.28;4957094;28;46285;-69
2021/12/08 05:52:07;;;;;;;;;2.00;0.50;;;;;6.09;66.51;99130.50;4976274;28;45290;-70
2021/12/08 05:54:36;;;;;;;;;13.00;11.50;;;;;6.34;66.62;99165.75;4958986;28;45294;-69
2021/12/08 05:57:07;;;;;;;;;5.75;3.25;;;;;6.35;66.68;99170.09;4976394;28;45262;-70
2021/12/08 05:59:33;;;;;;;;;2.50;1.00;;;;;6.06;66.54;99125.31;4976206;28;45531;-74
2021/12/08 06:02:12;;;;;;;;;1.75;1.75;;;;;6.30;66.62;99145.81;4976356;28;45440;-69
2021/12/08 06:04:40;;;;;;;;;1.00;1.00;;;;;6.34;66.50;99157.06;4975999;28;45307;-72
2021/12/08 06:07:07;;;;;;;;;1.25;1.25;;;;;6.32;66.44;99161.44;4976292;28;45393;-69
2021/12/08 06:09:34;;;;;;;;;1.50;1.50;;;;;6.16;66.55;99143.41;4976316;28;47179;-69
2021/12/08 06:12:01;;;;;;;;;3.00;3.00;;;;;6.01;67.10;99128.00;4958836;28;45463;-68
2021/12/08 06:14:32;;;;;;;;;2.00;2.00;;;;;5.97;66.72;99126.31;4975991;28;45443;-69
2021/12/08 06:17:03;;;;;;;;;0.00;0.00;;;;;6.17;66.23;99160.84;4976394;28;45485;-70
2021/12/08 06:19:29;;;;;;;;;2.00;1.00;;;;;6.12;66.84;99157.41;4975899;28;46040;-72
2021/12/08 06:21:55;;;;;;;;;1.50;1.50;;;;;6.11;67.04;99154.84;4975982;28;45262;-71
2021/12/08 06:24:21;;;;;;;;;0.75;0.75;;;;;5.88;67.20;99122.09;4976204;28;45254;-76
2021/12/08 06:26:47;;;;;;;;;1.50;0.00;;;;;5.72;66.57;99111.03;4976245;28;45474;-76
2021/12/08 06:29:17;;;;;;;;;1.50;1.50;;;;;5.80;66.24;99137.00;4975813;28;45500;-76
2021/12/08 06:31:44;;;;;;;;;2.75;1.25;;;;;5.96;66.78;99182.91;4959023;28;45444;-78
2021/12/08 06:34:10;;;;;;;;;2.00;1.00;;;;;5.83;66.91;99165.69;4975766;28;45536;-76
2021/12/08 06:36:45;;;;;;;;;1.75;1.75;;;;;5.89;66.71;99181.25;4976856;28;45373;-74
2021/12/08 06:39:16;;;;;;;;;6.00;1.00;;;;;5.79;66.96;99182.28;4977625;28;45298;-73
2021/12/08 06:41:46;;;;;;;;;0.75;0.75;;;;;5.72;67.37;99171.06;4981903;28;45405;-75
2021/12/08 06:44:24;;;;;;;;;1.75;1.75;;;;;5.61;66.91;99157.31;4978802;28;45505;-77
2021/12/08 06:46:50;;;;;;;;;1.00;1.00;;;;;5.83;67.06;99193.53;4975980;28;45417;-75
2021/12/08 06:49:18;;;;;;;;;0.00;0.00;;;;;5.55;67.26;99150.41;4957914;28;45460;-75
2021/12/08 06:51:49;;;;;;;;;1.00;1.00;;;;;5.73;66.91;99182.34;4976508;28;45388;-73
2021/12/08 06:54:21;;;;;;;;;2.00;2.00;;;;;5.77;67.02;99189.28;4958148;28;45366;-78
2021/12/08 06:56:56;;;;;;;;;3.00;3.00;;;;;5.76;67.39;99179.72;4977000;28;45254;-78
2021/12/08 06:59:27;;;;;;;;;1.00;1.00;;;;;5.82;67.19;99174.41;4964035;28;46105;-76
2021/12/08 07:02:05;;;;;;;;;2.25;1.00;;;;;5.86;67.32;99189.16;4995133;28;45413;-75
2021/12/08 07:04:54;;;;;;;;;8.00;8.00;;;;;5.43;67.25;99108.00;4988230;28;45486;-78
2021/12/08 07:07:26;;;;;;;;;1.00;1.00;;;;;5.70;67.33;99158.91;4973973;28;45649;-80
2021/12/08 07:10:05;;;;;;;;;2.00;2.00;;;;;5.68;67.19;99152.84;4974873;28;45347;-75
2021/12/08 07:12:35;;;;;;;;;1.75;1.75;;;;;5.72;67.18;99149.31;4974740;28;45458;-74
2021/12/08 07:15:09;;;;;;;;;4.50;2.75;;;;;5.66;67.59;99152.91;4974054;28;45434;-86
2021/12/08 07:17:39;;;;;;;;;1.50;1.50;;;;;5.79;67.68;99184.91;4974935;28;45448;-72
2021/12/08 07:20:34;;;;;;;;;47.25;41.25;;;;;5.70;67.55;99179.81;4974553;28;46245;-74
2021/12/08 07:23:01;;;;;;;;;25.25;21.00;;;;;5.51;67.76;99143.53;4974984;28;45437;-74
2021/12/08 07:25:30;;;;;;;;;1.00;1.00;;;;;5.73;67.90;99198.03;4974907;28;45494;-75
2021/12/08 07:27:55;;;;;;;;;1.00;1.00;;;;;5.75;68.25;99194.50;4975138;28;45250;-73
2021/12/08 07:30:25;;;;;;;;;1.25;1.25;;;;;5.75;67.98;99188.44;4974457;28;45405;-75
2021/12/08 07:32:51;;;;;;;;;2.00;2.00;;;;;5.61;68.13;99162.53;4974360;28;45498;-74
2021/12/08 07:35:26;;;;;;;;;5.25;1.00;;;;;5.64;68.33;99159.03;4957006;28;45435;-76
2021/12/08 07:37:52;;;;;;;;;2.00;0.25;;;;;5.58;67.58;99171.28;4975044;28;45400;-75
2021/12/08 07:40:27;;;;;;;;;9.25;5.50;;;;;5.53;67.94;99170.44;4974297;28;46852;-75
2021/12/08 07:42:59;;;;;;;;;1.00;1.00;;;;;5.70;67.78;99201.53;4957594;28;45371;-77
2021/12/08 07:45:32;;;;;;;;;2.25;2.25;;;;;5.41;67.90;99154.09;4956588;28;45473;-76
2021/12/08 07:48:01;;;;;;;;;4.50;4.00;;;;;5.46;68.12;99186.22;4987385;28;45444;-80
2021/12/08 07:50:33;;;;;;;;;1.00;0.00;;;;;5.64;67.91;99221.66;5059118;28;47540;-76
2021/12/08 07:53:00;;;;;;;;;1.00;1.00;;;;;5.77;67.77;99241.47;5077771;28;45461;-73
2021/12/08 07:55:31;;;;;;;;;6.25;6.25;;;;;5.70;68.29;99230.25;5076516;28;45393;-73
2021/12/08 07:57:59;;;;;;;;;5.00;2.25;;;;;5.18;68.11;99138.78;5077607;28;45577;-74
2021/12/08 08:00:34;;;;;;;;;5.50;2.00;;;;;5.89;67.82;99243.06;5076698;28;46021;-75
2021/12/08 08:03:00;;;;;;;;;2.50;2.50;;;;;5.85;67.95;99229.19;5076675;28;45431;-73
2021/12/08 08:05:28;;;;;;;;;2.75;2.00;;;;;5.24;67.71;99139.56;5077899;28;45429;-75
2021/12/08 08:07:57;;;;;;;;;3.25;2.00;;;;;5.92;67.96;99237.78;5060321;28;45536;-76
2021/12/08 08:10:24;;;;;;;;;3.00;2.00;;;;;5.93;67.41;99234.31;5077078;28;45546;-76
2021/12/08 08:12:57;;;;;;;;;0.00;0.00;;;;;5.89;67.70;99222.19;5076012;28;45319;-73
2021/12/08 08:15:25;;;;;;;;;2.75;1.00;;;;;5.95;67.49;99235.16;5076691;28;45353;-73
2021/12/08 08:17:53;;;;;;;;;6.00;2.00;;;;;5.95;67.88;99236.06;5077389;28;45965;-73
2021/12/08 08:20:34;;;;;;;;;8.50;3.00;;;;;5.93;67.45;99243.00;5076957;28;45532;-73
2021/12/08 08:23:00;;;;;;;;;11.00;5.00;;;;;5.87;67.58;99240.47;5077202;28;45275;-74
2021/12/08 08:25:33;;;;;;;;;6.25;4.50;;;;;5.89;68.12;99236.09;5076930;28;45399;-73
2021/12/08 08:27:59;;;;;;;;;3.00;0.00;;;;;5.87;67.44;99240.47;5076660;28;45552;-72
2021/12/08 08:30:31;;;;;;;;;5.25;1.50;;;;;5.59;67.97;99193.88;5076556;28;46296;-75
2021/12/08 08:32:58;;;;;;;;;6.00;6.00;;;;;5.84;67.54;99245.75;5076736;28;45518;-73
2021/12/08 08:35:31;;;;;;;;;4.25;3.50;;;;;5.86;67.22;99246.59;5058587;28;45384;-73
2021/12/08 08:38:00;;;;;;;;;4.50;2.50;;;;;5.79;67.44;99247.56;5077233;28;45191;-77
2021/12/08 08:40:40;;;;;;;;;3.50;3.50;;;;;5.94;67.40;99263.03;5077450;28;46336;-77
2021/12/08 08:43:08;;;;;;;;;1.00;1.00;;;;;5.93;67.80;99260.44;5080698;28;45494;-78
2021/12/08 08:45:58;;;;;;;;;5.75;2.00;;;;;5.98;67.31;99264.72;5079434;28;45362;-75
2021/12/08 08:48:28;;;;;;;;;4.50;2.00;;;;;6.03;67.17;99272.50;5047719;28;45787;-76
2021/12/08 08:51:09;;;;;;;;;5.25;5.25;;;;;6.02;67.26;99270.75;5076616;28;46334;-75
2021/12/08 08:53:37;;;;;;;;;2.75;2.75;;;;;6.05;67.52;99262.91;5076473;28;45211;-76
2021/12/08 08:56:13;;;;;;;;;6.25;5.75;;;;;6.10;67.41;99268.03;5076634;28;45514;-75
2021/12/08 08:58:43;;;;;;;;;3.00;2.75;;;;;6.03;67.20;99245.50;5080023;28;45451;-83
2021/12/08 09:01:20;;;;;;;;;3.00;3.00;;;;;6.07;67.46;99249.78;5076880;28;46654;-74
2021/12/08 09:03:54;;;;;;;;;4.25;2.00;;;;;6.08;67.02;99243.72;5076400;28;45387;-73
2021/12/08 09:06:25;;;;;;;;;6.00;3.50;;;;;5.89;67.40;99217.81;5075947;28;45392;-73
2021/12/08 09:09:01;;;;;;;;;0.75;0.75;;;;;5.94;66.88;99216.03;5076385;28;45344;-73
2021/12/08 09:11:33;;;;;;;;;2.25;2.00;;;;;6.07;66.65;99241.97;5075894;28;46232;-75
2021/12/08 09:14:09;;;;;;;;;5.75;3.00;;;;;6.08;67.13;99254.16;5075852;28;45312;-79
2021/12/08 09:16:43;;;;;;;;;5.00;3.00;;;;;6.17;66.86;99282.72;5076420;28;45261;-75
2021/12/08 09:19:23;;;;;;;;;10.75;10.50;;;;;6.17;66.56;99280.13;5076815;28;45389;-75
2021/12/08 09:22:04;;;;;;;;;5.75;4.75;;;;;6.03;66.72;99271.59;5075491;28;46342;-75
2021/12/08 09:24:44;;;;;;;;;12.50;7.75;;;;;6.25;66.61;99287.84;5078257;28;45343;-75
2021/12/08 09:27:13;;;;;;;;;3.25;3.25;;;;;6.21;66.38;99287.88;5079975;28;45298;-73
2021/12/08 09:29:50;;;;;;;;;6.00;3.00;;;;;6.31;66.33;99293.84;5081839;28;45362;-78
2021/12/08 09:32:22;;;;;;;;;5.00;4.00;;;;;6.33;66.30;99288.59;5081148;28;47555;-74
2021/12/08 09:34:54;;;;;;;;;4.25;4.25;;;;;6.38;66.00;99311.16;5061943;28;45851;-75
2021/12/08 09:37:23;;;;;;;;;5.75;2.00;;;;;6.43;66.23;99298.03;5079759;28;45414;-75
2021/12/08 09:39:56;;;;;;;;;5.50;5.25;;;;;6.48;66.03;99308.41;5079429;28;45265;-73
2021/12/08 09:42:27;;;;;;;;;2.75;1.75;;;;;6.46;65.61;99310.19;5079547;28;45877;-74
2021/12/08 09:45:01;;;;;;;;;1.50;1.50;;;;;6.40;66.12;99300.69;5079165;28;45289;-74
2021/12/08 09:47:29;;;;;;;;;6.00;6.00;;;;;6.38;65.72;99310.31;5079400;28;45270;-74
2021/12/08 09:49:58;;;;;;;;;12.50;6.50;;;;;6.50;66.02;99317.97;5079753;28;45339;-73
2021/12/08 09:52:27;;;;;;;;;3.00;3.00;;;;;6.54;65.33;99322.25;5079600;28;45436;-73
2021/12/08 09:54:57;;;;;;;;;2.25;2.25;;;;;6.57;65.76;99313.50;5079264;28;45376;-75
2021/12/08 09:57:24;;;;;;;;;4.00;3.50;;;;;6.59;65.22;99309.97;5078233;28;45254;-75
2021/12/08 09:59:49;;;;;;;;;3.50;3.50;;;;;6.43;65.18;99288.44;5078956;28;45467;-74
2021/12/08 10:02:25;;;;;;;;;3.00;2.00;;;;;6.50;65.35;99289.19;5078910;28;47717;-74
2021/12/08 10:04:50;;;;;;;;;2.00;2.00;;;;;6.25;65.06;99251.25;5078896;28;45485;-75
2021/12/08 10:07:18;;;;;;;;;2.75;2.75;;;;;6.58;65.02;99304.75;5078693;28;45408;-75
2021/12/08 10:09:44;;;;;;;;;1.25;1.00;;;;;6.60;65.20;99313.44;5080560;28;45448;-76
2021/12/08 10:12:10;;;;;;;;;7.00;6.00;;;;;6.12;65.12;99203.56;5080135;28;46396;-76
2021/12/08 10:14:35;;;;;;;;;1.00;1.00;;;;;6.57;65.01;99280.38;5079250;28;45461;-77
2021/12/08 10:17:01;;;;;;;;;2.50;2.25;;;;;6.19;65.17;99202.59;5062272;28;45198;-76
2021/12/08 10:19:26;;;;;;;;;7.25;5.75;;;;;6.69;65.06;99271.47;5079398;28;45209;-77
2021/12/08 10:21:52;;;;;;;;;1.25;1.00;;;;;6.73;64.41;99270.50;5080468;28;46515;-76
2021/12/08 10:24:24;;;;;;;;;4.25;4.25;;;;;6.50;64.57;99230.84;5081355;28;45408;-87
2021/12/08 10:26:52;;;;;;;;;6.00;6.00;;;;;6.84;64.50;99273.81;5086043;28;45423;-82
2021/12/08 10:29:28;;;;;;;;;3.50;2.00;;;;;6.90;64.48;99282.44;5067099;28;45276;-84
2021/12/08 10:31:55;;;;;;;;;11.00;4.00;;;;;6.36;64.13;99186.63;5080183;28;46409;-82
2021/12/08 10:34:26;;;;;;;;;3.00;3.00;;;;;6.51;63.84;99203.81;5080789;28;45460;-81
2021/12/08 10:37:05;;;;;;;;;10.00;3.25;;;;;6.57;63.94;99222.00;5081791;28;44874;-83
2021/12/08 10:39:46;;;;;;;;;7.00;5.00;;;;;6.79;63.66;99259.09;5079643;28;45818;-81
2021/12/08 10:42:18;;;;;;;;;0.00;0.00;;;;;6.55;63.79;99221.16;5082073;28;45450;-86
2021/12/08 10:45:07;;;;;;;;;4.25;4.25;;;;;6.98;63.68;99291.00;5064645;28;45505;-90
2021/12/08 10:56:19;;;;;;;;;8.25;6.00;;;;;7.08;63.38;99266.44;4961353;28;45522;-88
2021/12/08 10:58:49;;;;;;;;;5.50;3.25;;;;;7.05;63.04;99256.00;4968020;28;45505;-81
2021/12/08 11:01:21;;;;;;;;;7.75;3.75;;;;;7.24;63.50;99272.22;4958558;28;45372;-81
2021/12/08 11:03:49;;;;;;;;;4.00;3.50;;;;;6.84;62.90;99204.97;4976157;28;45747;-82
2021/12/08 11:06:17;;;;;;;;;7.25;6.25;;;;;7.29;63.10;99283.47;4975286;28;45346;-82
2021/12/08 11:08:45;;;;;;;;;9.75;6.00;;;;;7.14;62.36;99263.69;4975028;28;45397;-80
2021/12/08 11:11:20;;;;;;;;;7.75;6.25;;;;;7.36;63.24;99285.06;4992281;28;45468;-84
2021/12/08 11:13:50;;;;;;;;;10.75;10.50;;;;;7.01;62.36;99217.72;4974735;28;46118;-81
2021/12/08 11:16:24;;;;;;;;;6.25;5.50;;;;;7.48;62.00;99283.97;4975557;28;45358;-80
2021/12/08 11:19:09;;;;;;;;;3.75;2.00;;;;;7.34;61.53;99259.81;4955441;28;45413;-75
2021/12/08 11:21:40;;;;;;;;;20.25;12.75;;;;;7.36;61.77;99265.91;4955668;28;45419;-87
2021/12/08 11:24:30;;;;;;;;;9.75;8.00;;;;;7.52;61.38;99285.63;4958699;28;45758;-79
2021/12/08 11:27:02;;;;;;;;;12.25;10.50;;;;;7.56;61.82;99283.81;4977863;28;45486;-76
2021/12/08 11:29:31;;;;;;;;;13.50;12.25;;;;;7.35;61.50;99243.22;4994101;28;45329;-75
2021/12/08 11:32:09;;;;;;;;;4.25;4.25;;;;;7.32;61.63;99231.06;4993474;28;45395;-77
2021/12/08 11:34:41;;;;;;;;;6.50;4.00;;;;;7.22;60.98;99200.72;4993394;28;46103;-79
2021/12/08 11:37:14;;;;;;;;;27.50;26.00;;;;;7.53;61.15;99257.72;4975712;28;45482;-78
2021/12/08 11:39:43;;;;;;;;;3.25;3.25;;;;;7.66;60.38;99273.13;4989858;28;45310;-76
2021/12/08 11:42:17;;;;;;;;;5.50;5.50;;;;;7.47;61.03;99235.13;4976270;28;44938;-85
2021/12/08 11:44:46;;;;;;;;;13.25;9.75;;;;;7.11;60.64;99172.19;4957813;28;47174;-79
2021/12/08 11:47:15;;;;;;;;;188.75;165.75;;;;;7.67;60.64;99255.66;4965190;28;45503;-87
2021/12/08 11:49:44;;;;;;;;;58.25;47.75;;;;;7.87;60.08;99278.81;4971420;28;45385;-88
2021/12/08 11:52:19;;;;;;;;;4.00;4.00;;;;;7.88;59.99;99285.75;4980611;28;45489;-80
2021/12/08 11:54:51;;;;;;;;;4.25;3.50;;;;;7.92;59.75;99279.56;4983850;28;45376;-90
2021/12/08 11:57:21;;;;;;;;;5.50;3.00;;;;;7.94;60.15;99283.03;4981718;28;45310;-80
2021/12/08 11:59:55;;;;;;;;;14.00;9.00;;;;;7.70;59.74;99238.13;4985083;28;45392;-80
2021/12/08 12:02:24;;;;;;;;;3.75;3.75;;;;;7.87;59.49;99278.81;4980231;28;45736;-87
2021/12/08 12:04:50;;;;;;;;;7.25;7.25;;;;;7.57;59.92;99228.81;4973268;28;45730;-87
2021/12/08 12:07:16;;;;;;;;;14.75;13.75;;;;;7.65;59.52;99241.75;4950208;28;45419;-91
2021/12/08 12:09:43;;;;;;;;;8.00;8.00;;;;;8.00;59.91;99295.13;4990392;28;45508;-89
2021/12/08 12:12:09;;;;;;;;;2.50;2.50;;;;;7.77;59.45;99262.44;4999617;28;45263;-84
2021/12/08 12:14:36;;;;;;;;;6.75;5.25;;;;;8.04;59.80;99312.50;4985297;28;46512;-87
2021/12/08 12:17:03;;;;;;;;;4.00;4.00;;;;;7.79;59.58;99254.53;4990339;28;45362;-89
2021/12/08 12:19:35;;;;;;;;;7.00;4.75;;;;;7.63;59.48;99225.19;4985283;28;45333;-84
2021/12/08 12:22:27;;;;;;;;;18.00;13.75;;;;;8.19;59.45;99299.06;4981728;28;45242;-83
2021/12/08 12:25:11;;;;;;;;;13.75;12.25;;;;;8.25;59.24;99293.66;4989910;28;45420;-87
2021/12/08 12:28:01;;;;;;;;;6.25;6.25;;;;;8.30;59.49;99296.19;4985527;28;45347;-82
2021/12/08 12:30:45;;;;;;;;;6.25;4.00;;;;;8.29;59.23;99312.81;4978802;28;45468;-89
2021/12/08 12:33:17;;;;;;;;;3.00;3.00;;;;;8.24;59.07;99314.69;4968808;28;45472;-87
2021/12/08 12:35:52;;;;;;;;;3.00;3.00;;;;;8.12;58.95;99298.31;4985072;28;46273;-86
2021/12/08 12:38:30;;;;;;;;;2.00;1.50;;;;;8.14;58.98;99309.66;4973895;28;45688;-86
2021/12/08 12:40:57;;;;;;;;;5.25;4.00;;;;;8.14;58.70;99303.53;4978888;28;45228;-84
2021/12/08 12:43:29;;;;;;;;;3.50;2.00;;;;;8.26;58.93;99334.72;4984677;28;45477;-86
2021/12/08 12:46:06;;;;;;;;;1.25;1.25;;;;;8.02;58.70;99302.06;4968232;28;46470;-82